createdAt,value
2023-01-28T00:01:18.700Z,8.80
2023-01-28T00:03:45.296Z,11.30
2023-01-28T00:06:14.535Z,9.10
2023-01-28T00:08:41.828Z,11.80
2023-01-28T00:11:12.023Z,10.50
2023-01-28T00:13:38.588Z,10.80
2023-01-28T00:16:07.400Z,10.20
2023-01-28T00:18:34.356Z,10.80
2023-01-28T00:21:04.599Z,11.90
2023-01-28T00:23:33.998Z,10.80
2023-01-28T00:26:02.604Z,10.20
2023-01-28T00:28:29.226Z,10.50
2023-01-28T00:30:55.770Z,11.70
2023-01-28T00:33:22.285Z,8.10
2023-01-28T00:35:58.041Z,10.70
2023-01-28T00:38:24.555Z,9.40
2023-01-28T00:40:51.009Z,8.20
2023-01-28T00:43:17.507Z,9.60
2023-01-28T00:45:44.031Z,10.10
2023-01-28T00:48:10.563Z,10.70
2023-01-28T00:50:37.663Z,10.80
2023-01-28T00:53:04.492Z,8.90
2023-01-28T00:55:31.016Z,10.50
2023-01-28T00:57:57.459Z,9.10
2023-01-28T01:00:24.024Z,9.90
2023-01-28T01:02:50.531Z,9.70
2023-01-28T01:05:17.563Z,9.80
2023-01-28T01:07:44.181Z,8.40
2023-01-28T01:10:15.987Z,8.40
2023-01-28T01:12:42.697Z,9.60
2023-01-28T01:15:10.684Z,10.70
2023-01-28T01:17:41.991Z,9.00
2023-01-28T01:20:15.320Z,10.60
2023-01-28T01:22:41.915Z,11.00
2023-01-28T01:25:08.702Z,10.20
2023-01-28T01:27:35.282Z,10.50
2023-01-28T01:30:01.832Z,10.90
2023-01-28T01:32:32.898Z,11.00
2023-01-28T01:34:59.356Z,8.20
2023-01-28T01:37:25.929Z,9.40
2023-01-28T01:39:52.541Z,8.80
2023-01-28T01:42:19.297Z,8.90
2023-01-28T01:45:02.402Z,9.00
2023-01-28T01:47:39.333Z,10.50
2023-01-28T01:50:26.097Z,8.80
2023-01-28T01:52:57.189Z,8.80
2023-01-28T01:55:27.539Z,8.70
2023-01-28T01:57:56.987Z,10.00
2023-01-28T02:00:23.815Z,8.60
2023-01-28T02:02:52.716Z,8.60
2023-01-28T02:05:22.082Z,9.30
2023-01-28T02:07:51.840Z,9.60
2023-01-28T02:10:18.679Z,8.70
2023-01-28T02:12:53.530Z,9.00
2023-01-28T02:15:23.949Z,10.00
2023-01-28T02:17:51.515Z,8.40
2023-01-28T02:20:48.576Z,9.80
2023-01-28T02:23:23.966Z,10.40
2023-01-28T02:25:56.578Z,9.90
2023-01-28T02:28:27.119Z,10.00
2023-01-28T02:31:18.607Z,11.20
2023-01-28T02:33:53.905Z,10.00
2023-01-28T02:36:54.007Z,10.10
2023-01-28T02:39:24.804Z,9.30
2023-01-28T02:41:59.760Z,9.80
2023-01-28T02:44:26.401Z,9.60
2023-01-28T02:46:53.436Z,8.70
2023-01-28T02:49:25.937Z,10.60
2023-01-28T02:52:20.054Z,10.10
2023-01-28T02:54:46.583Z,11.00
2023-01-28T02:57:32.043Z,11.40
2023-01-28T03:00:24.381Z,10.50
2023-01-28T03:03:02.815Z,11.80
2023-01-28T03:05:42.777Z,11.90
2023-01-28T03:08:10.486Z,9.50
2023-01-28T03:10:37.820Z,10.80
2023-01-28T03:13:04.690Z,8.90
2023-01-28T03:15:39.790Z,10.50
2023-01-28T03:18:15.568Z,9.80
2023-01-28T03:21:09.409Z,11.80
2023-01-28T03:23:48.136Z,10.80
2023-01-28T03:26:15.737Z,11.30
2023-01-28T03:28:46.548Z,10.90
2023-01-28T03:31:16.289Z,10.60
2023-01-28T03:33:44.296Z,11.60
2023-01-28T03:36:11.518Z,11.50
2023-01-28T03:38:41.067Z,12.40
2023-01-28T03:41:11.971Z,12.70
2023-01-28T03:43:38.744Z,11.20
2023-01-28T03:46:05.410Z,11.80
2023-01-28T03:48:32.568Z,10.90
2023-01-28T03:50:59.080Z,9.20
2023-01-28T03:53:25.523Z,8.30
2023-01-28T03:55:54.193Z,12.20
2023-01-28T03:58:21.392Z,12.20
2023-01-28T04:00:48.051Z,11.50
2023-01-28T04:03:17.783Z,12.90
2023-01-28T04:05:59.713Z,12.50
2023-01-28T04:08:26.342Z,11.90
2023-01-28T04:10:52.995Z,13.60
2023-01-28T04:13:19.536Z,11.90
2023-01-28T04:15:46.905Z,11.20
2023-01-28T04:18:13.520Z,12.80
2023-01-28T04:20:40.566Z,11.80
2023-01-28T04:23:07.562Z,12.40
2023-01-28T04:25:34.722Z,12.50
2023-01-28T04:28:01.458Z,14.50
2023-01-28T04:30:28.042Z,10.80
2023-01-28T04:32:54.624Z,10.40
2023-01-28T04:35:21.135Z,11.80
2023-01-28T04:37:47.596Z,11.40
2023-01-28T04:40:14.219Z,10.20
2023-01-28T04:42:40.782Z,11.20
2023-01-28T04:45:08.116Z,13.50
2023-01-28T04:47:34.575Z,12.40
2023-01-28T04:50:01.037Z,11.80
2023-01-28T04:52:27.509Z,13.10
2023-01-28T04:54:54.026Z,13.90
2023-01-28T04:57:20.532Z,11.80
2023-01-28T04:59:46.994Z,12.90
2023-01-28T05:02:13.616Z,12.20
2023-01-28T05:04:40.122Z,11.20
2023-01-28T05:07:06.594Z,12.60
2023-01-28T05:09:33.067Z,13.00
2023-01-28T05:11:59.537Z,13.00
2023-01-28T05:14:26.105Z,11.50
2023-01-28T05:16:52.579Z,10.80
2023-01-28T05:19:19.512Z,11.90
2023-01-28T05:21:46.002Z,12.10
2023-01-28T05:24:12.596Z,11.00
2023-01-28T05:26:39.401Z,11.80
2023-01-28T05:29:05.974Z,10.20
2023-01-28T05:31:32.641Z,11.80
2023-01-28T05:33:59.210Z,11.10
2023-01-28T05:36:25.732Z,11.20
2023-01-28T05:38:52.195Z,11.30
2023-01-28T05:41:18.665Z,13.00
2023-01-28T05:43:45.158Z,12.30
2023-01-28T05:46:11.629Z,13.00
2023-01-28T05:48:38.108Z,12.90
2023-01-28T05:51:04.867Z,11.10
2023-01-28T05:53:32.404Z,10.10
2023-01-28T05:55:58.986Z,11.00
2023-01-28T05:58:25.518Z,11.70
2023-01-28T06:00:54.995Z,12.50
2023-01-28T06:03:21.454Z,12.40
2023-01-28T06:05:48.595Z,12.40
2023-01-28T06:08:15.353Z,12.60
2023-01-28T06:10:41.875Z,12.10
2023-01-28T06:13:08.395Z,10.30
2023-01-28T06:15:34.951Z,13.50
2023-01-28T06:18:01.501Z,12.30
2023-01-28T06:20:28.061Z,10.90
2023-01-28T06:22:54.588Z,12.80
2023-01-28T06:25:21.046Z,12.10
2023-01-28T06:27:47.541Z,13.20
2023-01-28T06:30:14.524Z,12.30
2023-01-28T06:32:41.348Z,14.00
2023-01-28T06:35:08.122Z,13.80
2023-01-28T06:37:34.740Z,13.60
2023-01-28T06:40:01.318Z,14.70
2023-01-28T06:42:27.781Z,11.70
2023-01-28T06:44:54.287Z,14.10
2023-01-28T06:47:20.771Z,10.80
2023-01-28T06:49:47.267Z,12.50
2023-01-28T06:52:13.752Z,12.50
2023-01-28T06:54:40.246Z,12.30
2023-01-28T06:57:06.748Z,12.40
2023-01-28T06:59:33.221Z,13.70
2023-01-28T07:01:59.821Z,13.50
2023-01-28T07:04:26.333Z,14.00
2023-01-28T07:06:52.777Z,14.50
2023-01-28T07:09:19.351Z,14.80
2023-01-28T07:11:45.852Z,14.00
2023-01-28T07:14:12.370Z,12.40
2023-01-28T07:16:38.860Z,14.00
2023-01-28T07:19:05.341Z,14.10
2023-01-28T07:21:31.815Z,14.10
2023-01-28T07:23:58.327Z,13.10
2023-01-28T07:26:24.881Z,14.90
2023-01-28T07:28:51.442Z,13.50
2023-01-28T07:31:18.069Z,13.50
2023-01-28T07:33:44.638Z,16.30
2023-01-28T07:36:11.116Z,14.00
2023-01-28T07:38:37.602Z,16.70
2023-01-28T07:41:04.249Z,12.30
2023-01-28T07:43:30.785Z,16.70
2023-01-28T07:46:00.784Z,17.40
2023-01-28T07:48:27.433Z,14.00
2023-01-28T07:50:54.019Z,16.50
2023-01-28T07:53:20.590Z,15.70
2023-01-28T07:55:47.037Z,17.00
2023-01-28T07:58:13.547Z,16.30
2023-01-28T08:00:40.082Z,16.60
2023-01-28T08:03:13.552Z,15.40
2023-01-28T08:05:46.466Z,16.10
2023-01-28T08:08:12.966Z,17.80
2023-01-28T08:10:40.395Z,12.60
2023-01-28T08:13:07.814Z,16.30
2023-01-28T08:15:36.333Z,14.00
2023-01-28T08:18:04.360Z,14.50
2023-01-28T08:20:31.203Z,14.10
2023-01-28T08:23:08.775Z,16.10
2023-01-28T08:25:36.218Z,16.30
2023-01-28T08:28:03.769Z,12.00
2023-01-28T08:30:31.062Z,13.50
2023-01-28T08:32:58.413Z,14.00
2023-01-28T08:35:26.209Z,17.00
2023-01-28T08:37:53.372Z,15.90
2023-01-28T08:40:20.893Z,13.60
2023-01-28T08:42:52.175Z,16.10
2023-01-28T08:45:19.697Z,13.90
2023-01-28T08:47:57.652Z,15.30
2023-01-28T08:50:26.403Z,9.10
2023-01-28T08:52:57.426Z,14.90
2023-01-28T08:55:25.065Z,12.80
2023-01-28T08:57:51.901Z,13.90
2023-01-28T09:00:19.357Z,13.50
2023-01-28T09:02:45.907Z,13.20
2023-01-28T09:05:12.538Z,13.20
2023-01-28T09:07:39.199Z,14.20
2023-01-28T09:10:06.580Z,12.90
2023-01-28T09:12:33.421Z,14.90
2023-01-28T09:14:59.943Z,14.00
2023-01-28T09:17:26.462Z,16.60
2023-01-28T09:19:52.985Z,14.80
2023-01-28T09:22:19.470Z,13.90
2023-01-28T09:24:45.944Z,12.10
2023-01-28T09:27:12.622Z,11.50
2023-01-28T09:29:42.736Z,10.60
2023-01-28T09:32:09.311Z,9.00
2023-01-28T09:34:35.820Z,11.40
2023-01-28T09:37:02.302Z,10.00
2023-01-28T09:39:28.812Z,10.60
2023-01-28T09:42:09.707Z,11.30
2023-01-28T09:45:00.955Z,11.20
2023-01-28T09:47:35.424Z,11.70
2023-01-28T09:50:07.105Z,12.20
2023-01-28T09:55:44.354Z,11.40
2023-01-28T09:58:12.704Z,10.00
2023-01-28T10:01:02.198Z,11.10
2023-01-28T10:03:40.970Z,10.50
2023-01-28T10:06:24.214Z,10.80
2023-01-28T10:08:50.697Z,11.30
2023-01-28T10:11:39.965Z,11.20
2023-01-28T10:14:10.379Z,7.70
2023-01-28T10:17:17.897Z,12.10
2023-01-28T10:20:00.683Z,10.80
2023-01-28T10:22:35.229Z,10.80
2023-01-28T10:25:15.159Z,11.20
2023-01-28T10:27:43.235Z,11.70
2023-01-28T10:30:20.253Z,10.20
2023-01-28T10:32:52.394Z,10.30
2023-01-28T10:35:19.807Z,12.00
2023-01-28T10:37:46.484Z,10.80
2023-01-28T10:40:17.004Z,13.20
2023-01-28T10:42:44.778Z,13.90
2023-01-28T10:45:13.967Z,14.10
2023-01-28T10:47:59.365Z,11.80
2023-01-28T10:50:28.269Z,10.80
2023-01-28T10:52:59.390Z,11.40
2023-01-28T10:55:55.702Z,10.60
2023-01-28T10:58:28.309Z,10.60
2023-01-28T11:00:59.622Z,11.30
2023-01-28T11:03:26.806Z,10.30
2023-01-28T11:05:55.711Z,10.20
2023-01-28T11:08:25.030Z,11.00
2023-01-28T11:10:52.797Z,11.30
2023-01-28T11:13:20.964Z,12.30
2023-01-28T11:15:49.774Z,11.80
2023-01-28T11:18:24.122Z,12.50
2023-01-28T11:21:18.603Z,11.80
2023-01-28T11:23:53.337Z,11.20
2023-01-28T11:26:24.794Z,11.00
2023-01-28T11:28:52.277Z,11.00
2023-01-28T11:31:21.772Z,8.70
2023-01-28T11:33:58.697Z,10.00
2023-01-28T11:36:27.679Z,9.30
2023-01-28T11:38:57.181Z,9.90
2023-01-28T11:41:30.776Z,10.40
2023-01-28T11:43:59.447Z,9.80
2023-01-28T11:46:55.385Z,9.70
2023-01-28T11:49:21.837Z,10.20
2023-01-28T11:52:14.241Z,10.20
2023-01-28T11:55:18.272Z,9.50
2023-01-28T11:58:02.935Z,9.50
2023-01-28T12:00:40.459Z,9.90
2023-01-28T12:03:42.352Z,9.10
2023-01-28T12:06:11.580Z,9.10
2023-01-28T12:09:18.524Z,9.00
2023-01-28T12:11:51.048Z,8.50
2023-01-28T12:14:23.296Z,11.70
2023-01-28T12:17:05.984Z,11.90
2023-01-28T12:19:47.914Z,12.40
2023-01-28T12:22:38.845Z,18.40
2023-01-28T12:25:36.597Z,19.10
2023-01-28T12:28:44.751Z,20.00
2023-01-28T12:31:35.609Z,39.10
2023-01-28T12:34:13.203Z,18.20
2023-01-28T12:36:42.645Z,38.20
2023-01-28T12:39:18.013Z,13.60
2023-01-28T12:41:50.893Z,14.30
2023-01-28T12:44:26.827Z,24.60
2023-01-28T12:47:07.725Z,19.10
2023-01-28T12:50:17.081Z,11.50
2023-01-28T12:52:55.600Z,11.00
2023-01-28T12:55:36.026Z,9.30
2023-01-28T12:58:05.586Z,13.00
2023-01-28T13:00:37.124Z,11.30
2023-01-28T13:03:28.597Z,9.00
2023-01-28T13:06:18.531Z,11.40
2023-01-28T13:08:45.004Z,9.10
2023-01-28T13:11:17.029Z,8.20
2023-01-28T13:13:46.224Z,8.70
2023-01-28T13:16:13.899Z,9.20
2023-01-28T13:18:40.411Z,8.90
2023-01-28T13:21:24.938Z,7.00
2023-01-28T13:24:05.213Z,7.60
2023-01-28T13:26:48.371Z,7.40
2023-01-28T13:29:14.958Z,6.50
2023-01-28T13:31:44.481Z,8.10
2023-01-28T13:34:29.311Z,8.00
2023-01-28T13:36:59.143Z,10.60
2023-01-28T13:39:26.798Z,7.80
2023-01-28T13:42:10.597Z,7.70
2023-01-28T13:44:38.211Z,7.90
2023-01-28T13:47:07.517Z,7.70
2023-01-28T13:49:43.675Z,9.00
2023-01-28T13:52:29.600Z,8.20
2023-01-28T13:55:02.310Z,7.00
2023-01-28T13:58:06.252Z,7.30
2023-01-28T14:00:32.721Z,7.60
2023-01-28T14:03:20.875Z,8.10
2023-01-28T14:06:02.651Z,7.20
2023-01-28T14:11:30.453Z,6.40
2023-01-28T14:14:18.363Z,5.80
2023-01-28T14:16:55.632Z,7.90
2023-01-28T14:19:32.693Z,7.00
2023-01-28T14:21:59.307Z,6.80
2023-01-28T14:24:27.170Z,8.60
2023-01-28T14:27:12.080Z,8.30
2023-01-28T14:29:59.206Z,9.00
2023-01-28T14:32:28.107Z,9.10
2023-01-28T14:34:56.846Z,9.20
2023-01-28T14:37:29.146Z,9.20
2023-01-28T14:40:17.261Z,8.70
2023-01-28T14:42:48.041Z,9.20
2023-01-28T14:45:23.580Z,9.50
2023-01-28T14:48:02.011Z,9.10
2023-01-28T14:50:34.950Z,11.80
2023-01-28T14:53:22.705Z,12.50
2023-01-28T14:55:58.431Z,17.00
2023-01-28T14:58:31.597Z,13.00
2023-01-28T15:01:00.353Z,19.70
2023-01-28T15:03:29.167Z,20.40
2023-01-28T15:06:12.403Z,14.20
2023-01-28T15:08:40.339Z,17.70
2023-01-28T15:11:10.891Z,12.30
2023-01-28T15:13:44.676Z,14.30
2023-01-28T15:16:21.844Z,11.90
2023-01-28T15:18:49.031Z,9.90
2023-01-28T15:21:23.637Z,10.10
2023-01-28T15:23:53.919Z,9.00
2023-01-28T15:26:24.622Z,9.50
2023-01-28T15:28:53.066Z,9.00
2023-01-28T15:31:20.594Z,10.30
2023-01-28T15:33:56.739Z,10.30
2023-01-28T15:36:23.355Z,12.30
2023-01-28T15:38:49.842Z,12.00
2023-01-28T15:41:20.517Z,11.80
2023-01-28T15:43:49.190Z,12.60
2023-01-28T15:46:15.741Z,14.50
2023-01-28T15:48:46.496Z,10.90
2023-01-28T15:51:33.305Z,12.10
2023-01-28T15:54:09.956Z,11.50
2023-01-28T15:56:36.846Z,9.70
2023-01-28T15:59:09.613Z,11.30
2023-01-28T16:01:36.220Z,13.50
2023-01-28T16:04:20.972Z,12.30
2023-01-28T16:06:47.874Z,13.00
2023-01-28T16:09:28.111Z,12.20
2023-01-28T16:12:02.740Z,12.70
2023-01-28T16:14:43.711Z,12.10
2023-01-28T16:17:16.096Z,14.10
2023-01-28T16:19:46.720Z,12.30
2023-01-28T16:22:23.438Z,12.20
2023-01-28T16:24:52.589Z,12.70
2023-01-28T16:27:24.793Z,11.30
2023-01-28T16:29:51.457Z,11.80
2023-01-28T16:32:33.389Z,11.80
2023-01-28T16:35:00.781Z,10.70
2023-01-28T16:40:00.398Z,11.30
2023-01-28T16:42:28.641Z,11.70
2023-01-28T16:44:55.119Z,12.20
2023-01-28T16:47:21.650Z,13.20
2023-01-28T16:49:48.194Z,12.00
2023-01-28T16:52:15.084Z,14.50
2023-01-28T16:54:43.402Z,11.40
2023-01-28T16:57:14.061Z,13.60
2023-01-28T16:59:40.539Z,14.80
2023-01-28T17:02:08.777Z,13.90
2023-01-28T17:04:35.258Z,13.70
2023-01-28T17:07:01.735Z,13.70
2023-01-28T17:09:28.272Z,13.60
2023-01-28T17:11:54.787Z,12.00
2023-01-28T17:14:21.388Z,12.80
2023-01-28T17:16:48.121Z,14.30
2023-01-28T17:19:16.864Z,12.90
2023-01-28T17:21:43.444Z,12.70
2023-01-28T17:24:10.212Z,11.00
2023-01-28T17:26:37.002Z,14.00
2023-01-28T17:29:07.892Z,12.30
2023-01-28T17:31:35.649Z,12.10
2023-01-28T17:34:02.193Z,13.60
2023-01-28T17:36:28.929Z,12.60
2023-01-28T17:38:55.733Z,12.00
2023-01-28T17:41:22.336Z,11.20
2023-01-28T17:43:53.663Z,11.90
2023-01-28T17:46:21.718Z,10.30
2023-01-28T17:48:48.205Z,13.50
2023-01-28T17:51:15.005Z,11.70
2023-01-28T17:53:46.001Z,12.10
2023-01-28T17:56:22.094Z,10.70
2023-01-28T17:58:53.405Z,12.70
2023-01-28T18:01:20.915Z,12.10
2023-01-28T18:03:47.864Z,11.60
2023-01-28T18:06:14.828Z,12.40
2023-01-28T18:08:41.446Z,11.00
2023-01-28T18:11:10.326Z,12.30
2023-01-28T18:13:40.661Z,13.10
2023-01-28T18:16:09.390Z,11.30
2023-01-28T18:18:36.000Z,10.60
2023-01-28T18:21:04.799Z,12.40
2023-01-28T18:23:32.300Z,10.90
2023-01-28T18:26:01.335Z,11.50
2023-01-28T18:28:28.498Z,12.70
2023-01-28T18:30:55.093Z,12.70
2023-01-28T18:33:23.186Z,12.00
2023-01-28T18:35:49.707Z,13.30
2023-01-28T18:38:16.454Z,12.30
2023-01-28T18:40:45.020Z,12.30
2023-01-28T18:43:12.345Z,13.00
2023-01-28T18:45:40.534Z,10.80
2023-01-28T18:48:07.367Z,11.60
2023-01-28T18:50:34.386Z,12.00
2023-01-28T18:53:00.983Z,11.90
2023-01-28T18:55:27.541Z,11.20
2023-01-28T18:57:56.158Z,12.50
2023-01-28T19:00:22.828Z,11.80
2023-01-28T19:02:49.335Z,12.30
2023-01-28T19:05:16.253Z,12.20
2023-01-28T19:07:43.120Z,12.60
2023-01-28T19:10:10.308Z,11.50
2023-01-28T19:12:36.803Z,11.10
2023-01-28T19:15:03.544Z,12.00
2023-01-28T19:17:32.409Z,11.80
2023-01-28T19:20:00.451Z,11.00
2023-01-28T19:22:26.934Z,12.70
2023-01-28T19:24:53.432Z,11.40
2023-01-28T19:27:19.928Z,11.80
2023-01-28T19:29:46.565Z,11.40
2023-01-28T19:32:13.071Z,12.60
2023-01-28T19:34:39.545Z,11.30
2023-01-28T19:37:06.081Z,12.20
2023-01-28T19:39:32.641Z,12.10
2023-01-28T19:41:59.133Z,10.90
2023-01-28T19:44:25.765Z,11.30
2023-01-28T19:46:52.273Z,12.70
2023-01-28T19:49:18.833Z,10.90
2023-01-28T19:51:45.364Z,11.30
2023-01-28T19:54:12.218Z,11.20
2023-01-28T19:56:38.761Z,10.80
2023-01-28T19:59:05.875Z,11.00
2023-01-28T20:01:32.431Z,12.20
2023-01-28T20:04:00.455Z,12.10
2023-01-28T20:06:29.971Z,12.40
2023-01-28T20:09:00.764Z,11.40
2023-01-28T20:11:27.408Z,12.00
2023-01-28T20:13:55.776Z,11.60
2023-01-28T20:16:25.347Z,12.40
2023-01-28T20:18:54.897Z,10.40
2023-01-28T20:21:22.146Z,10.70
2023-01-28T20:23:50.042Z,12.10
2023-01-28T20:26:17.725Z,10.90
2023-01-28T20:28:44.475Z,9.80
2023-01-28T20:31:12.470Z,12.70
2023-01-28T20:33:39.499Z,12.60
2023-01-28T20:36:08.658Z,12.70
2023-01-28T20:38:42.631Z,11.00
2023-01-28T20:41:14.742Z,11.70
2023-01-28T20:43:43.434Z,12.50
2023-01-28T20:46:15.672Z,10.40
2023-01-28T20:48:42.752Z,13.50
2023-01-28T20:51:17.686Z,13.30
2023-01-28T20:53:44.829Z,12.40
2023-01-28T20:56:12.830Z,12.00
2023-01-28T20:58:39.491Z,12.70
2023-01-28T21:01:06.872Z,12.40
2023-01-28T21:03:33.811Z,12.10
2023-01-28T21:06:01.037Z,12.30
2023-01-28T21:08:27.542Z,12.00
2023-01-28T21:10:54.061Z,13.40
2023-01-28T21:13:20.576Z,12.80
2023-01-28T21:15:55.077Z,13.60
2023-01-28T21:18:22.243Z,10.90
2023-01-28T21:20:48.932Z,12.70
2023-01-28T21:23:15.755Z,12.00
2023-01-28T21:25:43.436Z,13.60
2023-01-28T21:28:10.820Z,13.30
2023-01-28T21:30:38.076Z,12.30
2023-01-28T21:33:04.558Z,13.40
2023-01-28T21:35:31.177Z,12.80
2023-01-28T21:37:57.673Z,14.60
2023-01-28T21:40:24.164Z,12.60
2023-01-28T21:42:53.714Z,12.60
2023-01-28T21:45:20.283Z,13.10
2023-01-28T21:47:47.041Z,13.00
2023-01-28T21:50:13.896Z,12.40
2023-01-28T21:52:40.650Z,11.70
2023-01-28T21:55:07.930Z,14.10
2023-01-28T21:57:34.471Z,12.20
2023-01-28T22:00:00.957Z,14.50
2023-01-28T22:02:27.489Z,13.90
2023-01-28T22:04:54.000Z,11.30
2023-01-28T22:07:20.512Z,13.00
2023-01-28T22:09:47.560Z,11.70
2023-01-28T22:12:15.294Z,14.20
2023-01-28T22:14:42.429Z,14.10
2023-01-28T22:17:09.813Z,13.60
2023-01-28T22:19:36.867Z,14.20
2023-01-28T22:22:03.687Z,14.60
2023-01-28T22:24:30.787Z,14.50
2023-01-28T22:26:57.552Z,15.10
2023-01-28T22:29:25.045Z,14.10
2023-01-28T22:31:53.700Z,13.80
2023-01-28T22:34:21.616Z,12.10
2023-01-28T22:36:49.821Z,14.50
2023-01-28T22:39:17.181Z,14.10
2023-01-28T22:41:44.702Z,14.90
2023-01-28T22:44:11.661Z,13.60
2023-01-28T22:46:38.412Z,14.10
2023-01-28T22:49:05.529Z,13.80
2023-01-28T22:51:34.654Z,12.60
2023-01-28T22:54:01.414Z,10.70
2023-01-28T22:56:29.923Z,13.70
2023-01-28T22:58:58.895Z,14.60
2023-01-28T23:01:26.262Z,12.90
2023-01-28T23:03:53.267Z,12.30
2023-01-28T23:06:21.626Z,13.70
2023-01-28T23:08:49.057Z,14.50
2023-01-28T23:11:16.451Z,14.10
2023-01-28T23:13:44.198Z,13.90
2023-01-28T23:16:10.671Z,12.60
2023-01-28T23:18:38.177Z,14.50
2023-01-28T23:21:13.723Z,14.20
2023-01-28T23:23:40.213Z,12.60
2023-01-28T23:26:07.171Z,12.80
2023-01-28T23:28:33.764Z,13.50
2023-01-28T23:31:00.837Z,13.50
2023-01-28T23:33:27.456Z,12.60
2023-01-28T23:35:53.961Z,12.90
2023-01-28T23:38:20.442Z,13.70
2023-01-28T23:40:46.979Z,13.50
2023-01-28T23:43:13.770Z,12.10
2023-01-28T23:45:40.234Z,13.20
2023-01-28T23:48:06.820Z,11.70
2023-01-28T23:50:33.349Z,13.60
2023-01-28T23:53:00.231Z,12.60
2023-01-28T23:55:26.844Z,13.20
2023-01-28T23:57:53.340Z,13.70
